Wind from 091 at 6 knots gusting 12

Air temperature 25.6° C
Dewpoint 22.2° C

Last reported at 2014-Apr-17 08:38 UTC.
Time now 2014-Apr-17 09:45 UTC

Location: N 24°43' W 081°23'.
View on Google Maps.

See reports from other nearby stations

Tides Stations Pressure Air Temp Water Temp Dewpoint Dewpoint depression Visibility Wind Speed Wind Dir Waves Ship positions

  
sailing weather and tide predictions

NATIONAL KEY DEER NWR FL US weather

date/time (UTC)wind fromknots sea level pressurealtimeterstation pressurevisibilityair tempwater tempwave heightnotes
2014-Apr-17 08:38 091 6 gusting 12 25.6
2014-Apr-17 07:38 098 6 gusting 13 25.6
2014-Apr-17 06:38 094 6 gusting 13 25.6
2014-Apr-17 05:38 091 7 gusting 13 25.6
2014-Apr-17 04:38 086 6 gusting 12 25.6
2014-Apr-17 03:38 082 8 gusting 17 26.1
2014-Apr-17 02:38 095 8 gusting 17 26.1
2014-Apr-17 01:38 097 6 gusting 14 26.1
2014-Apr-17 00:38 091 6 gusting 10 26.1
2014-Apr-16 23:38 057 4 gusting 8 26.1
2014-Apr-16 22:38 008 5 gusting 8 27.8
2014-Apr-16 21:38 012 3 gusting 8 26.7
2014-Apr-16 20:38 021 4 gusting 9 27.2
2014-Apr-16 19:38 050 5 gusting 9 28.3
2014-Apr-16 18:38 047 6 gusting 9 27.2
2014-Apr-16 17:38 023 6 gusting 11 27.8
2014-Apr-16 16:38 016 6 gusting 13 27.8
2014-Apr-16 15:38 035 6 gusting 11 27.8
2014-Apr-16 14:38 037 6 gusting 10 26.7
2014-Apr-16 13:38 359 5 gusting 9 26.1
2014-Apr-16 12:38 008 5 gusting 10 24.4
2014-Apr-16 11:38 358 6 gusting 10 23.9
2014-Apr-16 10:38 351 4 gusting 9 23.3
2014-Apr-16 09:38 348 4 gusting 7 23.9
2014-Apr-16 08:38 331 5 gusting 10 23.9
2014-Apr-16 07:38 301 2 gusting 6 23.9
2014-Apr-16 06:38 296 3 gusting 6 25.0
2014-Apr-16 05:38 275 2 gusting 5 23.9
2014-Apr-16 04:38 215 0 gusting 3 23.9
2014-Apr-16 03:38 159 0 gusting 4 24.4
2014-Apr-16 02:38 319 1 gusting 4 25.0
2014-Apr-16 01:38 309 2 gusting 6 25.6
2014-Apr-16 00:38 308 3 gusting 9 25.6
2014-Apr-15 23:38 302 5 gusting 12 26.7
2014-Apr-15 22:38 310 6 gusting 11 28.3
2014-Apr-15 21:38 283 5 gusting 9 30.0
2014-Apr-15 20:38 235 6 gusting 10 30.0
2014-Apr-15 19:38 224 6 gusting 11 30.6
2014-Apr-15 18:38 203 6 gusting 14 28.9
2014-Apr-15 17:38 181 8 gusting 15 28.9
2014-Apr-15 16:38 188 11 gusting 17 29.4
2014-Apr-15 15:38 170 9 gusting 15 28.9
2014-Apr-15 14:38 188 8 gusting 16 28.3
2014-Apr-15 13:38 168 7 gusting 14 28.3
2014-Apr-15 12:38 157 7 gusting 13 27.2
2014-Apr-15 11:38 166 4 gusting 7 25.0
2014-Apr-15 10:38 163 4 gusting 8 25.0
2014-Apr-15 09:38 160 5 gusting 7 25.0